sensor_id;sensor_type;location;lat;lon;timestamp;temperature;humidity
3614;DHT22;1821;50.936;6.854;2022-12-18T00:00:05;-3.00;99.90
3614;DHT22;1821;50.936;6.854;2022-12-18T00:00:50;-3.10;99.90
3614;DHT22;1821;50.936;6.854;2022-12-18T00:02:18;-3.00;99.90
3614;DHT22;1821;50.936;6.854;2022-12-18T00:02:59;-3.10;99.90
3614;DHT22;1821;50.936;6.854;2022-12-18T00:03:41;-3.10;99.90
3614;DHT22;1821;50.936;6.854;2022-12-18T00:04:25;-3.00;99.90
3614;DHT22;1821;50.936;6.854;2022-12-18T00:05:08;-3.10;99.90
3614;DHT22;1821;50.936;6.854;2022-12-18T00:05:51;-2.90;99.90
3614;DHT22;1821;50.936;6.854;2022-12-18T00:06:35;-3.10;99.90
3614;DHT22;1821;50.936;6.854;2022-12-18T00:07:17;-3.20;99.90
3614;DHT22;1821;50.936;6.854;2022-12-18T00:07:59;-3.10;99.90
3614;DHT22;1821;50.936;6.854;2022-12-18T00:08:43;-3.20;99.90
3614;DHT22;1821;50.936;6.854;2022-12-18T00:09:25;-3.10;99.90
3614;DHT22;1821;50.936;6.854;2022-12-18T00:10:20;-3.00;99.90
3614;DHT22;1821;50.936;6.854;2022-12-18T00:11:09;-3.10;99.90
3614;DHT22;1821;50.936;6.854;2022-12-18T00:11:52;-3.10;99.90
3614;DHT22;1821;50.936;6.854;2022-12-18T00:12:33;-3.30;99.90
3614;DHT22;1821;50.936;6.854;2022-12-18T00:13:17;-3.20;99.90
3614;DHT22;1821;50.936;6.854;2022-12-18T00:13:59;-3.10;99.90
3614;DHT22;1821;50.936;6.854;2022-12-18T00:14:44;-3.20;99.90
3614;DHT22;1821;50.936;6.854;2022-12-18T00:15:26;-3.30;99.90
3614;DHT22;1821;50.936;6.854;2022-12-18T00:16:11;-3.20;99.90
3614;DHT22;1821;50.936;6.854;2022-12-18T00:16:54;-3.20;99.90
3614;DHT22;1821;50.936;6.854;2022-12-18T00:17:35;-3.10;99.90
3614;DHT22;1821;50.936;6.854;2022-12-18T00:18:17;-2.90;99.90
3614;DHT22;1821;50.936;6.854;2022-12-18T00:19:02;-3.10;99.90
3614;DHT22;1821;50.936;6.854;2022-12-18T00:19:44;-3.00;99.90
3614;DHT22;1821;50.936;6.854;2022-12-18T00:20:25;-3.20;99.90
3614;DHT22;1821;50.936;6.854;2022-12-18T00:21:09;-3.10;99.90
3614;DHT22;1821;50.936;6.854;2022-12-18T00:21:51;-3.10;99.90
3614;DHT22;1821;50.936;6.854;2022-12-18T00:22:33;-3.10;99.90
3614;DHT22;1821;50.936;6.854;2022-12-18T00:23:15;-3.10;99.90
3614;DHT22;1821;50.936;6.854;2022-12-18T00:23:57;-3.10;99.90
3614;DHT22;1821;50.936;6.854;2022-12-18T00:24:39;-3.10;99.90
3614;DHT22;1821;50.936;6.854;2022-12-18T00:25:21;-3.20;99.90
3614;DHT22;1821;50.936;6.854;2022-12-18T00:26:06;-3.00;99.90
3614;DHT22;1821;50.936;6.854;2022-12-18T00:26:48;-3.20;99.90
3614;DHT22;1821;50.936;6.854;2022-12-18T00:27:30;-3.20;99.90
3614;DHT22;1821;50.936;6.854;2022-12-18T00:28:12;-3.30;99.90
3614;DHT22;1821;50.936;6.854;2022-12-18T00:28:53;-3.10;99.90
3614;DHT22;1821;50.936;6.854;2022-12-18T00:29:40;-3.30;99.90
3614;DHT22;1821;50.936;6.854;2022-12-18T00:30:21;-3.20;99.90
3614;DHT22;1821;50.936;6.854;2022-12-18T00:31:11;-3.30;99.90
3614;DHT22;1821;50.936;6.854;2022-12-18T00:31:53;-1.10;99.90
3614;DHT22;1821;50.936;6.854;2022-12-18T00:32:35;-3.20;99.90
3614;DHT22;1821;50.936;6.854;2022-12-18T00:33:17;-3.10;99.90
3614;DHT22;1821;50.936;6.854;2022-12-18T00:33:59;-3.20;99.90
3614;DHT22;1821;50.936;6.854;2022-12-18T00:34:43;-3.10;99.90
3614;DHT22;1821;50.936;6.854;2022-12-18T00:35:25;-3.20;99.90
3614;DHT22;1821;50.936;6.854;2022-12-18T00:36:15;-3.20;99.90
3614;DHT22;1821;50.936;6.854;2022-12-18T00:36:57;-3.20;99.90
3614;DHT22;1821;50.936;6.854;2022-12-18T00:37:39;-3.00;99.90
3614;DHT22;1821;50.936;6.854;2022-12-18T00:38:21;-3.30;99.90
3614;DHT22;1821;50.936;6.854;2022-12-18T00:39:10;-3.30;99.90
3614;DHT22;1821;50.936;6.854;2022-12-18T00:39:52;-3.20;99.90
3614;DHT22;1821;50.936;6.854;2022-12-18T00:40:34;-3.00;99.90
3614;DHT22;1821;50.936;6.854;2022-12-18T00:41:17;-3.50;99.90
3614;DHT22;1821;50.936;6.854;2022-12-18T00:42:19;-3.20;99.90
3614;DHT22;1821;50.936;6.854;2022-12-18T00:43:19;-3.20;99.90
3614;DHT22;1821;50.936;6.854;2022-12-18T00:44:02;-3.20;99.90
3614;DHT22;1821;50.936;6.854;2022-12-18T00:44:43;-3.30;99.90
3614;DHT22;1821;50.936;6.854;2022-12-18T00:45:27;-3.20;99.90
3614;DHT22;1821;50.936;6.854;2022-12-18T00:46:09;-3.30;99.90
3614;DHT22;1821;50.936;6.854;2022-12-18T00:46:51;-3.20;99.90
3614;DHT22;1821;50.936;6.854;2022-12-18T00:47:33;-3.20;99.90
3614;DHT22;1821;50.936;6.854;2022-12-18T00:48:14;-3.10;99.90
3614;DHT22;1821;50.936;6.854;2022-12-18T00:48:56;-3.20;99.90
3614;DHT22;1821;50.936;6.854;2022-12-18T00:49:38;-3.10;99.90
3614;DHT22;1821;50.936;6.854;2022-12-18T00:50:20;-3.30;99.90
3614;DHT22;1821;50.936;6.854;2022-12-18T00:51:02;-3.30;99.90
3614;DHT22;1821;50.936;6.854;2022-12-18T00:51:50;-3.20;99.90
3614;DHT22;1821;50.936;6.854;2022-12-18T00:52:34;-3.30;99.90
3614;DHT22;1821;50.936;6.854;2022-12-18T00:53:16;-3.30;99.90
3614;DHT22;1821;50.936;6.854;2022-12-18T00:54:01;-3.00;99.90
3614;DHT22;1821;50.936;6.854;2022-12-18T00:54:42;-3.40;99.90
3614;DHT22;1821;50.936;6.854;2022-12-18T00:55:24;-3.30;99.90
3614;DHT22;1821;50.936;6.854;2022-12-18T00:56:08;-3.40;99.90
3614;DHT22;1821;50.936;6.854;2022-12-18T00:56:50;-3.20;99.90
3614;DHT22;1821;50.936;6.854;2022-12-18T00:57:38;-3.30;99.90
3614;DHT22;1821;50.936;6.854;2022-12-18T00:58:22;-3.20;99.90
3614;DHT22;1821;50.936;6.854;2022-12-18T00:59:04;-3.30;99.90
3614;DHT22;1821;50.936;6.854;2022-12-18T00:59:45;-3.20;99.90
3614;DHT22;1821;50.936;6.854;2022-12-18T01:00:27;-3.30;99.90
3614;DHT22;1821;50.936;6.854;2022-12-18T01:01:09;-3.30;99.90
3614;DHT22;1821;50.936;6.854;2022-12-18T01:01:53;-3.40;99.90
3614;DHT22;1821;50.936;6.854;2022-12-18T01:02:35;-3.30;99.90
3614;DHT22;1821;50.936;6.854;2022-12-18T01:03:17;-3.30;99.90
3614;DHT22;1821;50.936;6.854;2022-12-18T01:04:02;-3.30;99.90
3614;DHT22;1821;50.936;6.854;2022-12-18T01:04:44;-3.60;99.90
3614;DHT22;1821;50.936;6.854;2022-12-18T01:05:27;-3.30;99.90
3614;DHT22;1821;50.936;6.854;2022-12-18T01:06:10;-3.30;99.90
3614;DHT22;1821;50.936;6.854;2022-12-18T01:06:53;-3.20;99.90
3614;DHT22;1821;50.936;6.854;2022-12-18T01:07:34;-3.20;99.90
3614;DHT22;1821;50.936;6.854;2022-12-18T01:08:16;-3.40;99.90
3614;DHT22;1821;50.936;6.854;2022-12-18T01:09:00;-3.50;99.90
3614;DHT22;1821;50.936;6.854;2022-12-18T01:09:42;-3.30;99.90
3614;DHT22;1821;50.936;6.854;2022-12-18T01:10:24;-3.30;99.90
3614;DHT22;1821;50.936;6.854;2022-12-18T01:11:24;-3.30;99.90
3614;DHT22;1821;50.936;6.854;2022-12-18T01:12:06;-3.30;99.90
3614;DHT22;1821;50.936;6.854;2022-12-18T01:12:50;-3.30;99.90
3614;DHT22;1821;50.936;6.854;2022-12-18T01:13:32;-3.40;99.90
3614;DHT22;1821;50.936;6.854;2022-12-18T01:14:16;-3.30;99.90
3614;DHT22;1821;50.936;6.854;2022-12-18T01:14:57;-3.30;99.90
3614;DHT22;1821;50.936;6.854;2022-12-18T01:15:39;-3.30;99.90
3614;DHT22;1821;50.936;6.854;2022-12-18T01:16:21;-3.30;99.90
3614;DHT22;1821;50.936;6.854;2022-12-18T01:17:06;-3.30;99.90
3614;DHT22;1821;50.936;6.854;2022-12-18T01:17:47;-3.40;99.90
3614;DHT22;1821;50.936;6.854;2022-12-18T01:18:29;-3.40;99.90
3614;DHT22;1821;50.936;6.854;2022-12-18T01:19:13;-3.20;99.90
3614;DHT22;1821;50.936;6.854;2022-12-18T01:19:57;-3.50;99.90
3614;DHT22;1821;50.936;6.854;2022-12-18T01:20:39;-3.60;99.90
3614;DHT22;1821;50.936;6.854;2022-12-18T01:21:22;-3.40;99.90
3614;DHT22;1821;50.936;6.854;2022-12-18T01:22:04;-3.30;99.90
3614;DHT22;1821;50.936;6.854;2022-12-18T01:22:46;-3.30;99.90
3614;DHT22;1821;50.936;6.854;2022-12-18T01:23:27;-3.30;99.90
3614;DHT22;1821;50.936;6.854;2022-12-18T01:24:11;-3.20;99.90
3614;DHT22;1821;50.936;6.854;2022-12-18T01:24:53;-3.30;99.90
3614;DHT22;1821;50.936;6.854;2022-12-18T01:25:38;-3.30;99.90
3614;DHT22;1821;50.936;6.854;2022-12-18T01:26:20;-3.20;99.90
3614;DHT22;1821;50.936;6.854;2022-12-18T01:27:01;-3.20;99.90
3614;DHT22;1821;50.936;6.854;2022-12-18T01:27:45;-3.40;99.90
3614;DHT22;1821;50.936;6.854;2022-12-18T01:28:26;-3.00;99.90
3614;DHT22;1821;50.936;6.854;2022-12-18T01:29:08;-3.20;99.90
3614;DHT22;1821;50.936;6.854;2022-12-18T01:29:53;-3.30;99.90
3614;DHT22;1821;50.936;6.854;2022-12-18T01:30:35;-3.30;99.90
3614;DHT22;1821;50.936;6.854;2022-12-18T01:31:22;-3.30;99.90
3614;DHT22;1821;50.936;6.854;2022-12-18T01:32:04;-3.30;99.90
3614;DHT22;1821;50.936;6.854;2022-12-18T01:32:49;-3.30;99.90
3614;DHT22;1821;50.936;6.854;2022-12-18T01:33:30;-3.10;99.90
3614;DHT22;1821;50.936;6.854;2022-12-18T01:34:12;-3.40;99.90
3614;DHT22;1821;50.936;6.854;2022-12-18T01:34:54;-3.20;99.90
3614;DHT22;1821;50.936;6.854;2022-12-18T01:35:42;-3.20;99.90
3614;DHT22;1821;50.936;6.854;2022-12-18T01:36:30;-3.30;99.90
3614;DHT22;1821;50.936;6.854;2022-12-18T01:37:12;-3.30;99.90
3614;DHT22;1821;50.936;6.854;2022-12-18T01:37:56;-3.30;99.90
3614;DHT22;1821;50.936;6.854;2022-12-18T01:38:41;-3.40;99.90
3614;DHT22;1821;50.936;6.854;2022-12-18T01:39:26;-3.30;99.90
3614;DHT22;1821;50.936;6.854;2022-12-18T01:40:08;-3.30;99.90
3614;DHT22;1821;50.936;6.854;2022-12-18T01:40:57;-3.30;99.90
3614;DHT22;1821;50.936;6.854;2022-12-18T01:41:39;-3.30;99.90
3614;DHT22;1821;50.936;6.854;2022-12-18T01:42:39;-3.30;99.90
3614;DHT22;1821;50.936;6.854;2022-12-18T01:43:21;-3.20;99.90
3614;DHT22;1821;50.936;6.854;2022-12-18T01:45:30;-3.30;99.90
3614;DHT22;1821;50.936;6.854;2022-12-18T01:46:13;-3.10;99.90
3614;DHT22;1821;50.936;6.854;2022-12-18T01:46:55;-3.50;99.90
3614;DHT22;1821;50.936;6.854;2022-12-18T01:47:55;-3.50;99.90
3614;DHT22;1821;50.936;6.854;2022-12-18T01:48:42;-3.30;99.90
3614;DHT22;1821;50.936;6.854;2022-12-18T01:49:28;-3.30;99.90
3614;DHT22;1821;50.936;6.854;2022-12-18T01:51:46;-3.50;99.90
3614;DHT22;1821;50.936;6.854;2022-12-18T01:52:30;-3.20;99.90
3614;DHT22;1821;50.936;6.854;2022-12-18T01:53:18;-3.50;99.90
3614;DHT22;1821;50.936;6.854;2022-12-18T01:54:02;-3.30;99.90
3614;DHT22;1821;50.936;6.854;2022-12-18T01:54:44;-3.20;99.90
3614;DHT22;1821;50.936;6.854;2022-12-18T01:55:29;-3.40;99.90
3614;DHT22;1821;50.936;6.854;2022-12-18T01:56:16;-3.30;99.90
3614;DHT22;1821;50.936;6.854;2022-12-18T01:57:01;-3.40;99.90
3614;DHT22;1821;50.936;6.854;2022-12-18T01:57:43;-3.20;99.90
3614;DHT22;1821;50.936;6.854;2022-12-18T01:58:45;-3.40;99.90
3614;DHT22;1821;50.936;6.854;2022-12-18T01:59:32;-3.30;99.90
3614;DHT22;1821;50.936;6.854;2022-12-18T02:00:18;-3.20;99.90
3614;DHT22;1821;50.936;6.854;2022-12-18T02:01:04;-3.30;99.90
3614;DHT22;1821;50.936;6.854;2022-12-18T02:01:46;-3.60;99.90
3614;DHT22;1821;50.936;6.854;2022-12-18T02:02:29;-3.30;99.90
3614;DHT22;1821;50.936;6.854;2022-12-18T02:03:14;-3.40;99.90
3614;DHT22;1821;50.936;6.854;2022-12-18T02:04:21;-3.20;99.90
3614;DHT22;1821;50.936;6.854;2022-12-18T02:05:03;-3.40;99.90
3614;DHT22;1821;50.936;6.854;2022-12-18T02:06:10;-3.30;99.90
3614;DHT22;1821;50.936;6.854;2022-12-18T02:08:15;-3.30;99.90
3614;DHT22;1821;50.936;6.854;2022-12-18T02:09:09;-3.30;99.90
3614;DHT22;1821;50.936;6.854;2022-12-18T02:10:00;-3.30;99.90
3614;DHT22;1821;50.936;6.854;2022-12-18T02:13:14;-3.30;99.90
3614;DHT22;1821;50.936;6.854;2022-12-18T02:15:00;-3.40;99.90
3614;DHT22;1821;50.936;6.854;2022-12-18T02:17:57;-3.50;99.90
3614;DHT22;1821;50.936;6.854;2022-12-18T02:18:45;-3.40;99.90
3614;DHT22;1821;50.936;6.854;2022-12-18T02:20:33;-3.40;99.90
3614;DHT22;1821;50.936;6.854;2022-12-18T02:21:55;-3.40;99.90
3614;DHT22;1821;50.936;6.854;2022-12-18T02:22:59;-3.50;99.90
3614;DHT22;1821;50.936;6.854;2022-12-18T02:24:09;-3.30;99.90
3614;DHT22;1821;50.936;6.854;2022-12-18T02:26:15;-3.50;99.90
3614;DHT22;1821;50.936;6.854;2022-12-18T02:27:05;-3.50;99.90
3614;DHT22;1821;50.936;6.854;2022-12-18T02:28:36;-3.40;99.90
3614;DHT22;1821;50.936;6.854;2022-12-18T02:29:26;-3.50;99.90
3614;DHT22;1821;50.936;6.854;2022-12-18T02:30:53;-3.50;99.90
3614;DHT22;1821;50.936;6.854;2022-12-18T02:31:51;-3.40;99.90
3614;DHT22;1821;50.936;6.854;2022-12-18T02:32:42;-3.20;99.90
3614;DHT22;1821;50.936;6.854;2022-12-18T02:33:27;-3.40;99.90
3614;DHT22;1821;50.936;6.854;2022-12-18T02:34:10;-3.60;99.90
3614;DHT22;1821;50.936;6.854;2022-12-18T02:34:54;-3.60;99.90
3614;DHT22;1821;50.936;6.854;2022-12-18T02:35:38;-3.50;99.90
3614;DHT22;1821;50.936;6.854;2022-12-18T02:36:22;-3.60;99.90
3614;DHT22;1821;50.936;6.854;2022-12-18T02:37:50;-3.50;99.90
3614;DHT22;1821;50.936;6.854;2022-12-18T02:38:33;-3.60;99.90
3614;DHT22;1821;50.936;6.854;2022-12-18T02:39:16;-3.50;99.90
3614;DHT22;1821;50.936;6.854;2022-12-18T02:39:59;-3.50;99.90
3614;DHT22;1821;50.936;6.854;2022-12-18T02:40:42;-3.70;99.90
3614;DHT22;1821;50.936;6.854;2022-12-18T02:41:25;-3.50;99.90
3614;DHT22;1821;50.936;6.854;2022-12-18T02:42:07;-3.70;99.90
3614;DHT22;1821;50.936;6.854;2022-12-18T02:42:49;-3.60;99.90
3614;DHT22;1821;50.936;6.854;2022-12-18T02:43:31;-3.60;99.90
3614;DHT22;1821;50.936;6.854;2022-12-18T02:44:13;-3.60;99.90
3614;DHT22;1821;50.936;6.854;2022-12-18T02:44:55;-3.60;99.90
3614;DHT22;1821;50.936;6.854;2022-12-18T02:45:50;-3.50;99.90
3614;DHT22;1821;50.936;6.854;2022-12-18T02:47:22;-3.30;99.90
3614;DHT22;1821;50.936;6.854;2022-12-18T02:48:05;-3.50;99.90
3614;DHT22;1821;50.936;6.854;2022-12-18T02:48:47;-3.50;99.90
3614;DHT22;1821;50.936;6.854;2022-12-18T02:49:52;-3.40;99.90
3614;DHT22;1821;50.936;6.854;2022-12-18T02:50:39;-3.40;99.90
3614;DHT22;1821;50.936;6.854;2022-12-18T02:51:31;-3.60;99.90
3614;DHT22;1821;50.936;6.854;2022-12-18T02:53:33;-3.40;99.90
3614;DHT22;1821;50.936;6.854;2022-12-18T02:54:26;-3.50;99.90
3614;DHT22;1821;50.936;6.854;2022-12-18T02:55:30;-3.50;99.90
3614;DHT22;1821;50.936;6.854;2022-12-18T02:56:34;-3.60;99.90
3614;DHT22;1821;50.936;6.854;2022-12-18T02:59:24;-3.50;99.90
3614;DHT22;1821;50.936;6.854;2022-12-18T03:01:19;-3.50;99.90
3614;DHT22;1821;50.936;6.854;2022-12-18T03:02:24;-3.40;99.90
3614;DHT22;1821;50.936;6.854;2022-12-18T03:03:24;-3.50;99.90
3614;DHT22;1821;50.936;6.854;2022-12-18T03:05:03;-3.60;99.90
3614;DHT22;1821;50.936;6.854;2022-12-18T03:05:51;-3.50;99.90
3614;DHT22;1821;50.936;6.854;2022-12-18T03:06:42;-3.50;99.90
3614;DHT22;1821;50.936;6.854;2022-12-18T03:07:37;-3.60;99.90
3614;DHT22;1821;50.936;6.854;2022-12-18T03:08:23;-3.50;99.90
3614;DHT22;1821;50.936;6.854;2022-12-18T03:09:16;-3.60;99.90
3614;DHT22;1821;50.936;6.854;2022-12-18T03:10:00;-3.60;99.90
3614;DHT22;1821;50.936;6.854;2022-12-18T03:11:04;-3.40;99.90
3614;DHT22;1821;50.936;6.854;2022-12-18T03:11:55;-3.50;99.90
3614;DHT22;1821;50.936;6.854;2022-12-18T03:13:04;-3.60;99.90
3614;DHT22;1821;50.936;6.854;2022-12-18T03:13:52;-3.50;99.90
3614;DHT22;1821;50.936;6.854;2022-12-18T03:14:38;-3.40;99.90
3614;DHT22;1821;50.936;6.854;2022-12-18T03:15:30;-3.50;99.90
3614;DHT22;1821;50.936;6.854;2022-12-18T03:16:17;-3.60;99.90
3614;DHT22;1821;50.936;6.854;2022-12-18T03:17:03;-3.60;99.90
3614;DHT22;1821;50.936;6.854;2022-12-18T03:17:52;-3.70;99.90
3614;DHT22;1821;50.936;6.854;2022-12-18T03:18:47;-3.60;99.90
3614;DHT22;1821;50.936;6.854;2022-12-18T03:20:18;-3.40;99.90
3614;DHT22;1821;50.936;6.854;2022-12-18T03:21:05;-3.70;99.90
3614;DHT22;1821;50.936;6.854;2022-12-18T03:21:51;-3.60;99.90
3614;DHT22;1821;50.936;6.854;2022-12-18T03:22:34;-3.70;99.90
3614;DHT22;1821;50.936;6.854;2022-12-18T03:23:21;-3.60;99.90
3614;DHT22;1821;50.936;6.854;2022-12-18T03:24:08;-3.50;99.90
3614;DHT22;1821;50.936;6.854;2022-12-18T03:24:51;-3.60;99.90
3614;DHT22;1821;50.936;6.854;2022-12-18T03:25:35;-3.50;99.90
3614;DHT22;1821;50.936;6.854;2022-12-18T03:26:22;-3.50;99.90
3614;DHT22;1821;50.936;6.854;2022-12-18T03:27:10;-3.60;99.90
3614;DHT22;1821;50.936;6.854;2022-12-18T03:27:56;-3.70;99.90
3614;DHT22;1821;50.936;6.854;2022-12-18T03:28:44;-3.60;99.90
3614;DHT22;1821;50.936;6.854;2022-12-18T03:29:34;-3.60;99.90
3614;DHT22;1821;50.936;6.854;2022-12-18T03:30:17;-3.50;99.90
3614;DHT22;1821;50.936;6.854;2022-12-18T03:31:00;-3.60;99.90
3614;DHT22;1821;50.936;6.854;2022-12-18T03:32:01;-3.60;99.90
3614;DHT22;1821;50.936;6.854;2022-12-18T03:32:50;-3.40;99.90
3614;DHT22;1821;50.936;6.854;2022-12-18T03:34:14;-3.70;99.90
3614;DHT22;1821;50.936;6.854;2022-12-18T03:34:50;-3.50;99.90
3614;DHT22;1821;50.936;6.854;2022-12-18T03:35:36;-3.60;99.90
3614;DHT22;1821;50.936;6.854;2022-12-18T03:36:18;-3.70;99.90
3614;DHT22;1821;50.936;6.854;2022-12-18T03:37:05;-3.70;99.90
3614;DHT22;1821;50.936;6.854;2022-12-18T03:37:46;-3.60;99.90
3614;DHT22;1821;50.936;6.854;2022-12-18T03:38:28;-3.50;99.90
3614;DHT22;1821;50.936;6.854;2022-12-18T03:39:10;-3.60;99.90
3614;DHT22;1821;50.936;6.854;2022-12-18T03:39:52;-3.80;99.90
3614;DHT22;1821;50.936;6.854;2022-12-18T03:41:08;-3.70;99.90
3614;DHT22;1821;50.936;6.854;2022-12-18T03:41:57;-3.60;99.90
3614;DHT22;1821;50.936;6.854;2022-12-18T03:43:03;-3.60;99.90
3614;DHT22;1821;50.936;6.854;2022-12-18T03:45:27;-3.60;99.90
3614;DHT22;1821;50.936;6.854;2022-12-18T03:46:21;-3.80;99.90
3614;DHT22;1821;50.936;6.854;2022-12-18T03:47:15;-3.60;99.90
3614;DHT22;1821;50.936;6.854;2022-12-18T03:48:18;-3.70;99.90
3614;DHT22;1821;50.936;6.854;2022-12-18T03:49:15;-3.60;99.90
3614;DHT22;1821;50.936;6.854;2022-12-18T03:50:13;-3.40;99.90
3614;DHT22;1821;50.936;6.854;2022-12-18T03:50:59;-3.70;99.90
3614;DHT22;1821;50.936;6.854;2022-12-18T03:52:06;-3.70;99.90
3614;DHT22;1821;50.936;6.854;2022-12-18T03:54:00;-3.60;99.90
3614;DHT22;1821;50.936;6.854;2022-12-18T03:54:47;-3.70;99.90
3614;DHT22;1821;50.936;6.854;2022-12-18T03:55:32;-3.50;99.90
3614;DHT22;1821;50.936;6.854;2022-12-18T03:56:16;-3.50;99.90
3614;DHT22;1821;50.936;6.854;2022-12-18T03:57:06;-3.60;99.90
3614;DHT22;1821;50.936;6.854;2022-12-18T03:57:52;-3.70;99.90
3614;DHT22;1821;50.936;6.854;2022-12-18T04:01:34;-3.70;99.90
3614;DHT22;1821;50.936;6.854;2022-12-18T04:02:21;-3.70;99.90
3614;DHT22;1821;50.936;6.854;2022-12-18T04:03:07;-3.60;99.90
3614;DHT22;1821;50.936;6.854;2022-12-18T04:13:09;-3.70;99.90
3614;DHT22;1821;50.936;6.854;2022-12-18T04:13:55;-3.80;99.90
3614;DHT22;1821;50.936;6.854;2022-12-18T04:14:38;-3.80;99.90
3614;DHT22;1821;50.936;6.854;2022-12-18T04:15:20;-3.70;99.90
3614;DHT22;1821;50.936;6.854;2022-12-18T04:16:02;-3.70;99.90
3614;DHT22;1821;50.936;6.854;2022-12-18T04:16:46;-3.80;99.90
3614;DHT22;1821;50.936;6.854;2022-12-18T04:17:28;-3.80;99.90
3614;DHT22;1821;50.936;6.854;2022-12-18T04:18:10;-3.70;99.90
3614;DHT22;1821;50.936;6.854;2022-12-18T04:18:52;-3.70;99.90
3614;DHT22;1821;50.936;6.854;2022-12-18T04:19:34;-3.80;99.90
3614;DHT22;1821;50.936;6.854;2022-12-18T04:20:16;-3.70;99.90
3614;DHT22;1821;50.936;6.854;2022-12-18T04:21:02;-3.90;99.90
3614;DHT22;1821;50.936;6.854;2022-12-18T04:21:46;-3.90;99.90
3614;DHT22;1821;50.936;6.854;2022-12-18T04:22:27;-3.90;99.90
3614;DHT22;1821;50.936;6.854;2022-12-18T04:23:09;-3.80;99.90
3614;DHT22;1821;50.936;6.854;2022-12-18T04:23:51;-3.80;99.90
3614;DHT22;1821;50.936;6.854;2022-12-18T04:24:32;-3.80;99.90
3614;DHT22;1821;50.936;6.854;2022-12-18T04:25:14;-3.70;99.90
3614;DHT22;1821;50.936;6.854;2022-12-18T04:25:56;-3.70;99.90
3614;DHT22;1821;50.936;6.854;2022-12-18T04:26:40;-3.90;99.90
3614;DHT22;1821;50.936;6.854;2022-12-18T04:27:22;-3.90;99.90
3614;DHT22;1821;50.936;6.854;2022-12-18T04:28:06;-3.90;99.90
3614;DHT22;1821;50.936;6.854;2022-12-18T04:28:48;-3.90;99.90
3614;DHT22;1821;50.936;6.854;2022-12-18T04:29:30;-3.90;99.90
3614;DHT22;1821;50.936;6.854;2022-12-18T04:30:11;-3.90;99.90
3614;DHT22;1821;50.936;6.854;2022-12-18T04:30:53;-3.80;99.90
3614;DHT22;1821;50.936;6.854;2022-12-18T04:31:35;-3.80;99.90
3614;DHT22;1821;50.936;6.854;2022-12-18T04:32:17;-3.90;99.90
3614;DHT22;1821;50.936;6.854;2022-12-18T04:32:58;-3.90;99.90
3614;DHT22;1821;50.936;6.854;2022-12-18T04:33:43;-3.80;99.90
3614;DHT22;1821;50.936;6.854;2022-12-18T04:34:24;-3.90;99.90
3614;DHT22;1821;50.936;6.854;2022-12-18T04:35:06;-4.00;99.90
3614;DHT22;1821;50.936;6.854;2022-12-18T04:35:51;-4.10;99.90
3614;DHT22;1821;50.936;6.854;2022-12-18T04:36:33;-3.70;99.90
3614;DHT22;1821;50.936;6.854;2022-12-18T04:37:17;-3.80;99.90
3614;DHT22;1821;50.936;6.854;2022-12-18T04:37:59;-3.90;99.90
3614;DHT22;1821;50.936;6.854;2022-12-18T04:38:41;-3.80;99.90
3614;DHT22;1821;50.936;6.854;2022-12-18T04:39:24;-4.10;99.90
3614;DHT22;1821;50.936;6.854;2022-12-18T04:40:06;-3.60;99.90
3614;DHT22;1821;50.936;6.854;2022-12-18T04:40:50;-4.00;99.90
3614;DHT22;1821;50.936;6.854;2022-12-18T04:41:35;-4.00;99.90
3614;DHT22;1821;50.936;6.854;2022-12-18T04:42:16;-3.70;99.90
3614;DHT22;1821;50.936;6.854;2022-12-18T04:43:01;-4.00;99.90
3614;DHT22;1821;50.936;6.854;2022-12-18T04:43:46;-3.90;99.90
3614;DHT22;1821;50.936;6.854;2022-12-18T04:44:27;-3.90;99.90
3614;DHT22;1821;50.936;6.854;2022-12-18T04:45:12;-3.90;99.90
3614;DHT22;1821;50.936;6.854;2022-12-18T04:45:53;-3.70;99.90
3614;DHT22;1821;50.936;6.854;2022-12-18T04:46:35;-3.80;99.90
3614;DHT22;1821;50.936;6.854;2022-12-18T04:47:20;-4.00;99.90
3614;DHT22;1821;50.936;6.854;2022-12-18T04:48:03;-3.80;99.90
3614;DHT22;1821;50.936;6.854;2022-12-18T04:48:46;-4.00;99.90
3614;DHT22;1821;50.936;6.854;2022-12-18T04:49:31;-4.10;99.90
3614;DHT22;1821;50.936;6.854;2022-12-18T04:50:12;-4.00;99.90
3614;DHT22;1821;50.936;6.854;2022-12-18T04:50:54;-4.10;99.90
3614;DHT22;1821;50.936;6.854;2022-12-18T04:51:37;-4.10;99.90
3614;DHT22;1821;50.936;6.854;2022-12-18T04:52:19;-3.90;99.90
3614;DHT22;1821;50.936;6.854;2022-12-18T04:53:09;-3.90;99.90
3614;DHT22;1821;50.936;6.854;2022-12-18T04:53:51;-4.00;99.90
3614;DHT22;1821;50.936;6.854;2022-12-18T04:54:33;-4.30;99.90
3614;DHT22;1821;50.936;6.854;2022-12-18T04:55:14;-4.00;99.90
3614;DHT22;1821;50.936;6.854;2022-12-18T04:56:05;-3.80;99.90
3614;DHT22;1821;50.936;6.854;2022-12-18T04:56:50;-4.00;99.90
3614;DHT22;1821;50.936;6.854;2022-12-18T04:57:32;-4.00;99.90
3614;DHT22;1821;50.936;6.854;2022-12-18T04:58:14;-4.00;99.90
3614;DHT22;1821;50.936;6.854;2022-12-18T04:58:58;-4.00;99.90
3614;DHT22;1821;50.936;6.854;2022-12-18T04:59:40;-4.00;99.90
3614;DHT22;1821;50.936;6.854;2022-12-18T05:00:22;-3.60;99.90
3614;DHT22;1821;50.936;6.854;2022-12-18T05:01:04;-4.20;99.90
3614;DHT22;1821;50.936;6.854;2022-12-18T05:01:46;-4.00;99.90
3614;DHT22;1821;50.936;6.854;2022-12-18T05:02:27;-4.00;99.90
3614;DHT22;1821;50.936;6.854;2022-12-18T05:03:09;-3.90;99.90
3614;DHT22;1821;50.936;6.854;2022-12-18T05:03:51;-4.10;99.90
3614;DHT22;1821;50.936;6.854;2022-12-18T05:04:33;-4.30;99.90
3614;DHT22;1821;50.936;6.854;2022-12-18T05:05:15;-4.00;99.90
3614;DHT22;1821;50.936;6.854;2022-12-18T05:05:57;-3.90;99.90
3614;DHT22;1821;50.936;6.854;2022-12-18T05:06:38;-4.00;99.90
3614;DHT22;1821;50.936;6.854;2022-12-18T05:07:20;-4.10;99.90
3614;DHT22;1821;50.936;6.854;2022-12-18T05:08:02;-4.10;99.90
3614;DHT22;1821;50.936;6.854;2022-12-18T05:08:43;-4.00;99.90
3614;DHT22;1821;50.936;6.854;2022-12-18T05:09:26;-4.00;99.90
3614;DHT22;1821;50.936;6.854;2022-12-18T05:10:08;-4.10;99.90
3614;DHT22;1821;50.936;6.854;2022-12-18T05:11:04;-4.10;99.90
3614;DHT22;1821;50.936;6.854;2022-12-18T05:11:46;-4.20;99.90
3614;DHT22;1821;50.936;6.854;2022-12-18T05:12:28;-4.00;99.90
3614;DHT22;1821;50.936;6.854;2022-12-18T05:13:10;-4.00;99.90
3614;DHT22;1821;50.936;6.854;2022-12-18T05:13:52;-3.90;99.90
3614;DHT22;1821;50.936;6.854;2022-12-18T05:14:33;-4.10;99.90
3614;DHT22;1821;50.936;6.854;2022-12-18T05:15:15;-4.00;99.90
3614;DHT22;1821;50.936;6.854;2022-12-18T05:15:57;-4.00;99.90
3614;DHT22;1821;50.936;6.854;2022-12-18T05:16:39;-4.10;99.90
3614;DHT22;1821;50.936;6.854;2022-12-18T05:17:20;-4.00;99.90
3614;DHT22;1821;50.936;6.854;2022-12-18T05:18:02;-2.80;99.90
3614;DHT22;1821;50.936;6.854;2022-12-18T05:18:45;-4.20;99.90
3614;DHT22;1821;50.936;6.854;2022-12-18T05:19:26;-4.00;99.90
3614;DHT22;1821;50.936;6.854;2022-12-18T05:20:09;-4.00;99.90
3614;DHT22;1821;50.936;6.854;2022-12-18T05:20:52;-3.80;99.90
3614;DHT22;1821;50.936;6.854;2022-12-18T05:21:33;-4.00;99.90
3614;DHT22;1821;50.936;6.854;2022-12-18T05:22:15;-4.00;99.90
3614;DHT22;1821;50.936;6.854;2022-12-18T05:22:57;-3.90;99.90
3614;DHT22;1821;50.936;6.854;2022-12-18T05:23:39;-4.00;99.90
3614;DHT22;1821;50.936;6.854;2022-12-18T05:24:21;-4.10;99.90
3614;DHT22;1821;50.936;6.854;2022-12-18T05:25:03;-4.00;99.90
3614;DHT22;1821;50.936;6.854;2022-12-18T05:25:56;-4.10;99.90
3614;DHT22;1821;50.936;6.854;2022-12-18T05:26:38;-3.80;99.90
3614;DHT22;1821;50.936;6.854;2022-12-18T05:27:22;-4.20;99.90
3614;DHT22;1821;50.936;6.854;2022-12-18T05:28:03;-4.20;99.90
3614;DHT22;1821;50.936;6.854;2022-12-18T05:28:45;-4.10;99.90
3614;DHT22;1821;50.936;6.854;2022-12-18T05:29:27;-4.30;99.90
3614;DHT22;1821;50.936;6.854;2022-12-18T05:30:09;-4.10;99.90
3614;DHT22;1821;50.936;6.854;2022-12-18T05:30:54;-4.10;99.90
3614;DHT22;1821;50.936;6.854;2022-12-18T05:31:36;-4.10;99.90
3614;DHT22;1821;50.936;6.854;2022-12-18T05:32:20;-4.30;99.90
3614;DHT22;1821;50.936;6.854;2022-12-18T05:33:02;-4.40;99.90